sensor_id;sensor_type;location;lat;lon;timestamp;temperature;humidity
52869;DHT22;39100;53.480;6.158;2023-03-03T00:01:58;4.60;99.90
52869;DHT22;39100;53.480;6.158;2023-03-03T00:04:24;4.60;99.90
52869;DHT22;39100;53.480;6.158;2023-03-03T00:06:49;4.60;99.90
52869;DHT22;39100;53.480;6.158;2023-03-03T00:09:15;4.60;99.90
52869;DHT22;39100;53.480;6.158;2023-03-03T00:11:40;4.60;99.90
52869;DHT22;39100;53.480;6.158;2023-03-03T00:14:15;4.70;99.90
52869;DHT22;39100;53.480;6.158;2023-03-03T00:16:41;4.60;99.90
52869;DHT22;39100;53.480;6.158;2023-03-03T00:19:13;4.70;99.90
52869;DHT22;39100;53.480;6.158;2023-03-03T00:21:40;4.70;99.90
52869;DHT22;39100;53.480;6.158;2023-03-03T00:26:35;4.60;99.90
52869;DHT22;39100;53.480;6.158;2023-03-03T00:29:01;4.70;99.90
52869;DHT22;39100;53.480;6.158;2023-03-03T00:31:41;4.70;99.90
52869;DHT22;39100;53.480;6.158;2023-03-03T00:36:41;4.70;99.90
52869;DHT22;39100;53.480;6.158;2023-03-03T00:39:12;4.70;99.90
52869;DHT22;39100;53.480;6.158;2023-03-03T00:41:42;4.70;99.90
52869;DHT22;39100;53.480;6.158;2023-03-03T00:44:30;4.70;99.90
52869;DHT22;39100;53.480;6.158;2023-03-03T00:46:56;4.70;99.90
52869;DHT22;39100;53.480;6.158;2023-03-03T00:49:23;4.70;99.90
52869;DHT22;39100;53.480;6.158;2023-03-03T00:51:51;4.70;99.90
52869;DHT22;39100;53.480;6.158;2023-03-03T00:54:16;4.60;99.90
52869;DHT22;39100;53.480;6.158;2023-03-03T00:56:42;4.70;99.90
52869;DHT22;39100;53.480;6.158;2023-03-03T00:59:07;4.60;99.90
52869;DHT22;39100;53.480;6.158;2023-03-03T01:01:33;4.60;99.90
52869;DHT22;39100;53.480;6.158;2023-03-03T01:03:58;4.60;99.90
52869;DHT22;39100;53.480;6.158;2023-03-03T01:06:24;4.60;99.90
52869;DHT22;39100;53.480;6.158;2023-03-03T01:08:50;4.60;99.90
52869;DHT22;39100;53.480;6.158;2023-03-03T01:11:16;4.60;99.90
52869;DHT22;39100;53.480;6.158;2023-03-03T01:13:44;4.60;99.90
52869;DHT22;39100;53.480;6.158;2023-03-03T01:16:10;4.70;99.90
52869;DHT22;39100;53.480;6.158;2023-03-03T01:18:36;4.70;99.90
52869;DHT22;39100;53.480;6.158;2023-03-03T01:21:01;4.70;99.90
52869;DHT22;39100;53.480;6.158;2023-03-03T01:23:27;4.80;99.90
52869;DHT22;39100;53.480;6.158;2023-03-03T01:25:52;4.80;99.90
52869;DHT22;39100;53.480;6.158;2023-03-03T01:28:18;4.70;99.90
52869;DHT22;39100;53.480;6.158;2023-03-03T01:30:43;4.80;99.90
52869;DHT22;39100;53.480;6.158;2023-03-03T01:33:09;4.80;99.90
52869;DHT22;39100;53.480;6.158;2023-03-03T01:35:35;4.80;99.90
52869;DHT22;39100;53.480;6.158;2023-03-03T01:38:00;4.80;99.90
52869;DHT22;39100;53.480;6.158;2023-03-03T01:40:27;4.80;99.90
52869;DHT22;39100;53.480;6.158;2023-03-03T01:42:53;4.80;99.90
52869;DHT22;39100;53.480;6.158;2023-03-03T01:50:41;4.80;99.90
52869;DHT22;39100;53.480;6.158;2023-03-03T01:53:05;4.80;99.90
52869;DHT22;39100;53.480;6.158;2023-03-03T01:55:35;4.80;99.90
52869;DHT22;39100;53.480;6.158;2023-03-03T01:58:05;4.90;99.90
52869;DHT22;39100;53.480;6.158;2023-03-03T02:00:32;4.90;99.90
52869;DHT22;39100;53.480;6.158;2023-03-03T02:02:58;4.90;99.90
52869;DHT22;39100;53.480;6.158;2023-03-03T02:05:24;4.90;99.90
52869;DHT22;39100;53.480;6.158;2023-03-03T02:07:50;4.90;99.90
52869;DHT22;39100;53.480;6.158;2023-03-03T02:10:16;4.90;99.90
52869;DHT22;39100;53.480;6.158;2023-03-03T02:12:52;4.90;99.90
52869;DHT22;39100;53.480;6.158;2023-03-03T02:15:22;4.90;99.90
52869;DHT22;39100;53.480;6.158;2023-03-03T02:17:49;4.90;99.90
52869;DHT22;39100;53.480;6.158;2023-03-03T02:25:15;4.90;99.90
52869;DHT22;39100;53.480;6.158;2023-03-03T02:27:42;4.90;99.90
52869;DHT22;39100;53.480;6.158;2023-03-03T02:30:10;4.90;99.90
52869;DHT22;39100;53.480;6.158;2023-03-03T02:32:35;4.90;99.90
52869;DHT22;39100;53.480;6.158;2023-03-03T02:35:19;4.80;99.90
52869;DHT22;39100;53.480;6.158;2023-03-03T02:37:46;4.90;99.90
52869;DHT22;39100;53.480;6.158;2023-03-03T02:40:12;4.90;99.90
52869;DHT22;39100;53.480;6.158;2023-03-03T02:42:38;4.80;99.90
52869;DHT22;39100;53.480;6.158;2023-03-03T02:45:03;4.80;99.90
52869;DHT22;39100;53.480;6.158;2023-03-03T02:47:29;4.80;99.90
52869;DHT22;39100;53.480;6.158;2023-03-03T02:49:54;4.80;99.90
52869;DHT22;39100;53.480;6.158;2023-03-03T02:52:20;4.80;99.90
52869;DHT22;39100;53.480;6.158;2023-03-03T02:54:45;4.70;99.90
52869;DHT22;39100;53.480;6.158;2023-03-03T02:57:12;4.80;99.90
52869;DHT22;39100;53.480;6.158;2023-03-03T02:59:38;4.80;99.90
52869;DHT22;39100;53.480;6.158;2023-03-03T03:02:03;4.80;99.90
52869;DHT22;39100;53.480;6.158;2023-03-03T03:04:29;4.80;99.90
52869;DHT22;39100;53.480;6.158;2023-03-03T03:06:54;4.80;99.90
52869;DHT22;39100;53.480;6.158;2023-03-03T03:09:22;4.80;99.90
52869;DHT22;39100;53.480;6.158;2023-03-03T03:11:47;4.80;99.90
52869;DHT22;39100;53.480;6.158;2023-03-03T03:14:13;4.80;99.90
52869;DHT22;39100;53.480;6.158;2023-03-03T03:16:39;4.80;99.90
52869;DHT22;39100;53.480;6.158;2023-03-03T03:19:05;4.70;99.90
52869;DHT22;39100;53.480;6.158;2023-03-03T03:21:31;4.70;99.90
52869;DHT22;39100;53.480;6.158;2023-03-03T03:23:56;4.70;99.90
52869;DHT22;39100;53.480;6.158;2023-03-03T03:26:22;4.60;99.90
52869;DHT22;39100;53.480;6.158;2023-03-03T03:28:48;4.60;99.90
52869;DHT22;39100;53.480;6.158;2023-03-03T03:31:13;4.60;99.90
52869;DHT22;39100;53.480;6.158;2023-03-03T03:33:39;4.60;99.90
52869;DHT22;39100;53.480;6.158;2023-03-03T03:36:05;4.70;99.90
52869;DHT22;39100;53.480;6.158;2023-03-03T03:38:31;4.60;99.90
52869;DHT22;39100;53.480;6.158;2023-03-03T03:40:56;4.60;99.90
52869;DHT22;39100;53.480;6.158;2023-03-03T03:43:22;4.60;99.90
52869;DHT22;39100;53.480;6.158;2023-03-03T03:45:48;4.50;99.90
52869;DHT22;39100;53.480;6.158;2023-03-03T03:48:13;4.50;99.90
52869;DHT22;39100;53.480;6.158;2023-03-03T03:50:40;4.50;99.90
52869;DHT22;39100;53.480;6.158;2023-03-03T03:53:05;4.60;99.90
52869;DHT22;39100;53.480;6.158;2023-03-03T03:55:31;4.50;99.90
52869;DHT22;39100;53.480;6.158;2023-03-03T03:57:57;4.50;99.90
52869;DHT22;39100;53.480;6.158;2023-03-03T04:00:23;4.50;99.90
52869;DHT22;39100;53.480;6.158;2023-03-03T04:02:48;4.60;99.90
52869;DHT22;39100;53.480;6.158;2023-03-03T04:05:14;4.60;99.90
52869;DHT22;39100;53.480;6.158;2023-03-03T04:07:39;4.60;99.90
52869;DHT22;39100;53.480;6.158;2023-03-03T04:10:05;4.60;99.90
52869;DHT22;39100;53.480;6.158;2023-03-03T04:12:31;4.60;99.90
52869;DHT22;39100;53.480;6.158;2023-03-03T04:15:06;4.50;99.90
52869;DHT22;39100;53.480;6.158;2023-03-03T04:17:32;4.50;99.90
52869;DHT22;39100;53.480;6.158;2023-03-03T04:19:58;4.50;99.90
52869;DHT22;39100;53.480;6.158;2023-03-03T04:22:23;4.50;99.90
52869;DHT22;39100;53.480;6.158;2023-03-03T04:24:49;4.50;99.90
52869;DHT22;39100;53.480;6.158;2023-03-03T04:27:14;4.40;99.90
52869;DHT22;39100;53.480;6.158;2023-03-03T04:29:40;4.40;99.90
52869;DHT22;39100;53.480;6.158;2023-03-03T04:32:06;4.40;99.90
52869;DHT22;39100;53.480;6.158;2023-03-03T04:34:31;4.30;99.90
52869;DHT22;39100;53.480;6.158;2023-03-03T04:36:57;4.80;99.90
52869;DHT22;39100;53.480;6.158;2023-03-03T04:39:22;4.30;99.90
52869;DHT22;39100;53.480;6.158;2023-03-03T04:41:48;4.30;99.90
52869;DHT22;39100;53.480;6.158;2023-03-03T04:44:14;4.30;99.90
52869;DHT22;39100;53.480;6.158;2023-03-03T04:46:39;4.30;99.90
52869;DHT22;39100;53.480;6.158;2023-03-03T04:49:05;4.40;99.90
52869;DHT22;39100;53.480;6.158;2023-03-03T04:51:33;4.40;99.90
52869;DHT22;39100;53.480;6.158;2023-03-03T04:53:58;4.40;99.90
52869;DHT22;39100;53.480;6.158;2023-03-03T04:56:24;4.50;99.90
52869;DHT22;39100;53.480;6.158;2023-03-03T04:58:49;4.50;99.90
52869;DHT22;39100;53.480;6.158;2023-03-03T05:01:14;4.50;99.90
52869;DHT22;39100;53.480;6.158;2023-03-03T05:03:40;4.50;99.90
52869;DHT22;39100;53.480;6.158;2023-03-03T05:06:06;4.50;99.90
52869;DHT22;39100;53.480;6.158;2023-03-03T05:08:32;4.40;99.90
52869;DHT22;39100;53.480;6.158;2023-03-03T05:10:57;4.30;99.90
52869;DHT22;39100;53.480;6.158;2023-03-03T05:13:24;4.30;99.90
52869;DHT22;39100;53.480;6.158;2023-03-03T05:15:51;4.30;99.90
52869;DHT22;39100;53.480;6.158;2023-03-03T05:18:19;4.30;99.90
52869;DHT22;39100;53.480;6.158;2023-03-03T05:20:45;4.30;99.90
52869;DHT22;39100;53.480;6.158;2023-03-03T05:23:10;4.30;99.90
52869;DHT22;39100;53.480;6.158;2023-03-03T05:25:36;4.40;99.90
52869;DHT22;39100;53.480;6.158;2023-03-03T05:28:02;4.40;99.90
52869;DHT22;39100;53.480;6.158;2023-03-03T05:30:28;4.40;99.90
52869;DHT22;39100;53.480;6.158;2023-03-03T05:32:54;4.40;99.90
52869;DHT22;39100;53.480;6.158;2023-03-03T05:35:19;4.40;99.90
52869;DHT22;39100;53.480;6.158;2023-03-03T05:37:45;4.50;99.90
52869;DHT22;39100;53.480;6.158;2023-03-03T05:40:12;4.40;99.90
52869;DHT22;39100;53.480;6.158;2023-03-03T05:42:39;4.40;99.90
52869;DHT22;39100;53.480;6.158;2023-03-03T05:45:04;4.40;99.90
52869;DHT22;39100;53.480;6.158;2023-03-03T05:47:30;4.40;99.90
52869;DHT22;39100;53.480;6.158;2023-03-03T05:49:56;4.40;99.90
52869;DHT22;39100;53.480;6.158;2023-03-03T05:52:21;4.30;99.90
52869;DHT22;39100;53.480;6.158;2023-03-03T05:54:48;4.30;99.90
52869;DHT22;39100;53.480;6.158;2023-03-03T05:57:14;4.30;99.90
52869;DHT22;39100;53.480;6.158;2023-03-03T05:59:40;4.20;99.90
52869;DHT22;39100;53.480;6.158;2023-03-03T06:02:05;4.20;99.90
52869;DHT22;39100;53.480;6.158;2023-03-03T06:04:31;4.20;99.90
52869;DHT22;39100;53.480;6.158;2023-03-03T06:06:56;4.10;99.90
52869;DHT22;39100;53.480;6.158;2023-03-03T06:09:22;4.10;99.90
52869;DHT22;39100;53.480;6.158;2023-03-03T06:11:48;4.10;99.90
52869;DHT22;39100;53.480;6.158;2023-03-03T06:14:13;4.00;99.90
52869;DHT22;39100;53.480;6.158;2023-03-03T06:16:39;4.00;99.90
52869;DHT22;39100;53.480;6.158;2023-03-03T06:19:04;4.00;99.90
52869;DHT22;39100;53.480;6.158;2023-03-03T06:21:30;4.10;99.90
52869;DHT22;39100;53.480;6.158;2023-03-03T06:23:55;4.00;99.90
52869;DHT22;39100;53.480;6.158;2023-03-03T06:26:21;4.10;99.90
52869;DHT22;39100;53.480;6.158;2023-03-03T06:28:47;4.10;99.90
52869;DHT22;39100;53.480;6.158;2023-03-03T06:31:14;4.00;99.90
52869;DHT22;39100;53.480;6.158;2023-03-03T06:33:40;4.10;99.90
52869;DHT22;39100;53.480;6.158;2023-03-03T06:36:07;4.10;99.90
52869;DHT22;39100;53.480;6.158;2023-03-03T06:38:32;4.10;99.90
52869;DHT22;39100;53.480;6.158;2023-03-03T06:40:58;4.10;99.90
52869;DHT22;39100;53.480;6.158;2023-03-03T06:43:26;4.20;99.90
52869;DHT22;39100;53.480;6.158;2023-03-03T06:45:51;4.20;99.90
52869;DHT22;39100;53.480;6.158;2023-03-03T06:48:17;4.20;99.90
52869;DHT22;39100;53.480;6.158;2023-03-03T06:50:42;4.20;99.90
52869;DHT22;39100;53.480;6.158;2023-03-03T06:53:15;4.20;99.90
52869;DHT22;39100;53.480;6.158;2023-03-03T06:55:41;4.30;99.90
52869;DHT22;39100;53.480;6.158;2023-03-03T06:58:13;4.30;99.90
52869;DHT22;39100;53.480;6.158;2023-03-03T07:00:40;4.40;99.90
52869;DHT22;39100;53.480;6.158;2023-03-03T07:03:13;4.50;99.90
52869;DHT22;39100;53.480;6.158;2023-03-03T07:05:39;4.60;99.90
52869;DHT22;39100;53.480;6.158;2023-03-03T07:08:08;4.70;99.90
52869;DHT22;39100;53.480;6.158;2023-03-03T07:10:35;4.90;99.90
52869;DHT22;39100;53.480;6.158;2023-03-03T07:15:45;5.10;99.90
52869;DHT22;39100;53.480;6.158;2023-03-03T07:18:58;5.20;99.90
52869;DHT22;39100;53.480;6.158;2023-03-03T07:20:57;5.20;99.90
52869;DHT22;39100;53.480;6.158;2023-03-03T07:23:24;5.40;99.90
52869;DHT22;39100;53.480;6.158;2023-03-03T07:25:50;5.40;99.90
52869;DHT22;39100;53.480;6.158;2023-03-03T07:30:41;5.60;99.90
52869;DHT22;39100;53.480;6.158;2023-03-03T07:33:10;5.70;99.90
52869;DHT22;39100;53.480;6.158;2023-03-03T07:35:43;5.80;99.90
52869;DHT22;39100;53.480;6.158;2023-03-03T07:38:13;5.90;99.90
52869;DHT22;39100;53.480;6.158;2023-03-03T07:40:42;6.00;99.90
52869;DHT22;39100;53.480;6.158;2023-03-03T07:43:29;6.10;99.90
52869;DHT22;39100;53.480;6.158;2023-03-03T07:45:56;6.20;99.90
52869;DHT22;39100;53.480;6.158;2023-03-03T07:48:37;6.30;99.90
52869;DHT22;39100;53.480;6.158;2023-03-03T07:51:18;6.40;99.90
52869;DHT22;39100;53.480;6.158;2023-03-03T07:53:46;6.40;99.90
52869;DHT22;39100;53.480;6.158;2023-03-03T07:56:29;6.40;99.90
52869;DHT22;39100;53.480;6.158;2023-03-03T07:58:55;6.40;99.90
52869;DHT22;39100;53.480;6.158;2023-03-03T08:06:52;6.60;99.90
52869;DHT22;39100;53.480;6.158;2023-03-03T08:11:46;6.70;99.90
52869;DHT22;39100;53.480;6.158;2023-03-03T08:14:14;6.70;99.90
52869;DHT22;39100;53.480;6.158;2023-03-03T08:16:40;6.70;99.90
52869;DHT22;39100;53.480;6.158;2023-03-03T08:19:05;6.80;99.90
52869;DHT22;39100;53.480;6.158;2023-03-03T08:21:31;6.80;99.90
52869;DHT22;39100;53.480;6.158;2023-03-03T08:24:01;6.90;99.90
52869;DHT22;39100;53.480;6.158;2023-03-03T08:26:26;6.90;99.90
52869;DHT22;39100;53.480;6.158;2023-03-03T08:28:52;7.00;99.90
52869;DHT22;39100;53.480;6.158;2023-03-03T08:31:18;7.00;99.90
52869;DHT22;39100;53.480;6.158;2023-03-03T08:33:43;7.10;99.90
52869;DHT22;39100;53.480;6.158;2023-03-03T08:36:09;7.20;99.90
52869;DHT22;39100;53.480;6.158;2023-03-03T08:38:35;7.30;99.90
52869;DHT22;39100;53.480;6.158;2023-03-03T08:41:02;7.40;99.90
52869;DHT22;39100;53.480;6.158;2023-03-03T08:43:27;7.40;99.90
52869;DHT22;39100;53.480;6.158;2023-03-03T08:45:53;7.40;99.90
52869;DHT22;39100;53.480;6.158;2023-03-03T08:48:22;7.50;99.90
52869;DHT22;39100;53.480;6.158;2023-03-03T08:50:47;7.60;99.90
52869;DHT22;39100;53.480;6.158;2023-03-03T08:53:13;7.50;99.90
52869;DHT22;39100;53.480;6.158;2023-03-03T08:55:39;7.50;99.90
52869;DHT22;39100;53.480;6.158;2023-03-03T08:58:05;7.50;99.90
52869;DHT22;39100;53.480;6.158;2023-03-03T09:00:31;7.60;99.90
52869;DHT22;39100;53.480;6.158;2023-03-03T09:02:56;7.60;99.90
52869;DHT22;39100;53.480;6.158;2023-03-03T09:05:22;7.60;99.90
52869;DHT22;39100;53.480;6.158;2023-03-03T09:07:48;7.60;99.90
52869;DHT22;39100;53.480;6.158;2023-03-03T09:10:17;7.80;99.90
52869;DHT22;39100;53.480;6.158;2023-03-03T09:12:46;7.70;99.90
52869;DHT22;39100;53.480;6.158;2023-03-03T09:17:44;7.80;99.90
52869;DHT22;39100;53.480;6.158;2023-03-03T09:22:53;7.70;99.90
52869;DHT22;39100;53.480;6.158;2023-03-03T09:25:21;7.80;99.90
52869;DHT22;39100;53.480;6.158;2023-03-03T09:27:47;7.90;99.90
52869;DHT22;39100;53.480;6.158;2023-03-03T09:32:50;8.00;99.90
52869;DHT22;39100;53.480;6.158;2023-03-03T09:37:59;8.30;99.90
52869;DHT22;39100;53.480;6.158;2023-03-03T09:43:05;8.50;99.90
52869;DHT22;39100;53.480;6.158;2023-03-03T09:45:35;8.60;99.90
52869;DHT22;39100;53.480;6.158;2023-03-03T09:48:10;8.70;99.90
52869;DHT22;39100;53.480;6.158;2023-03-03T09:50:43;8.80;99.90
52869;DHT22;39100;53.480;6.158;2023-03-03T10:00:48;9.30;99.90
52869;DHT22;39100;53.480;6.158;2023-03-03T10:11:22;9.70;99.90
52869;DHT22;39100;53.480;6.158;2023-03-03T10:14:00;9.80;99.90
52869;DHT22;39100;53.480;6.158;2023-03-03T10:16:39;9.80;99.90
52869;DHT22;39100;53.480;6.158;2023-03-03T10:21:35;9.90;99.90
52869;DHT22;39100;53.480;6.158;2023-03-03T10:26:37;10.00;99.90
52869;DHT22;39100;53.480;6.158;2023-03-03T10:31:34;9.90;99.90
52869;DHT22;39100;53.480;6.158;2023-03-03T10:36:44;10.00;99.90
52869;DHT22;39100;53.480;6.158;2023-03-03T10:41:42;10.10;99.90
52869;DHT22;39100;53.480;6.158;2023-03-03T10:49:36;10.00;99.90
52869;DHT22;39100;53.480;6.158;2023-03-03T10:52:17;10.00;99.90
52869;DHT22;39100;53.480;6.158;2023-03-03T11:02:30;11.00;99.90
52869;DHT22;39100;53.480;6.158;2023-03-03T11:12:38;11.20;99.90
52869;DHT22;39100;53.480;6.158;2023-03-03T11:18:09;11.30;99.90
52869;DHT22;39100;53.480;6.158;2023-03-03T11:25:50;11.10;99.90
52869;DHT22;39100;53.480;6.158;2023-03-03T11:33:33;10.90;99.90
52869;DHT22;39100;53.480;6.158;2023-03-03T11:38:46;10.50;99.90
52869;DHT22;39100;53.480;6.158;2023-03-03T11:43:41;10.40;99.90
52869;DHT22;39100;53.480;6.158;2023-03-03T11:46:08;10.30;99.90
52869;DHT22;39100;53.480;6.158;2023-03-03T11:51:28;10.40;99.90
52869;DHT22;39100;53.480;6.158;2023-03-03T11:53:57;10.30;99.90
52869;DHT22;39100;53.480;6.158;2023-03-03T11:56:26;10.20;99.90
52869;DHT22;39100;53.480;6.158;2023-03-03T12:01:38;10.10;99.90
52869;DHT22;39100;53.480;6.158;2023-03-03T12:04:18;10.10;99.90
52869;DHT22;39100;53.480;6.158;2023-03-03T12:06:50;10.00;99.90
52869;DHT22;39100;53.480;6.158;2023-03-03T12:16:50;9.80;99.90
52869;DHT22;39100;53.480;6.158;2023-03-03T12:27:57;9.70;99.90
52869;DHT22;39100;53.480;6.158;2023-03-03T12:29:55;9.70;99.90
52869;DHT22;39100;53.480;6.158;2023-03-03T12:35:16;9.70;99.90
52869;DHT22;39100;53.480;6.158;2023-03-03T12:37:46;9.70;99.90
52869;DHT22;39100;53.480;6.158;2023-03-03T12:40:19;9.70;99.90
52869;DHT22;39100;53.480;6.158;2023-03-03T12:48:16;9.50;99.90
52869;DHT22;39100;53.480;6.158;2023-03-03T12:50:48;9.50;99.90
52869;DHT22;39100;53.480;6.158;2023-03-03T12:56:07;9.40;99.90
52869;DHT22;39100;53.480;6.158;2023-03-03T13:01:21;9.30;99.90
52869;DHT22;39100;53.480;6.158;2023-03-03T13:06:22;9.40;99.90
52869;DHT22;39100;53.480;6.158;2023-03-03T13:08:54;9.30;99.90
52869;DHT22;39100;53.480;6.158;2023-03-03T13:11:31;9.40;99.90
52869;DHT22;39100;53.480;6.158;2023-03-03T13:16:36;9.40;99.90
52869;DHT22;39100;53.480;6.158;2023-03-03T13:19:06;9.30;99.90
52869;DHT22;39100;53.480;6.158;2023-03-03T13:21:38;9.30;99.90
52869;DHT22;39100;53.480;6.158;2023-03-03T13:26:32;9.20;99.90
52869;DHT22;39100;53.480;6.158;2023-03-03T13:29:19;9.80;99.90
52869;DHT22;39100;53.480;6.158;2023-03-03T13:31:46;9.30;99.90
52869;DHT22;39100;53.480;6.158;2023-03-03T13:34:22;9.30;99.90
52869;DHT22;39100;53.480;6.158;2023-03-03T13:36:51;9.40;99.90
52869;DHT22;39100;53.480;6.158;2023-03-03T13:39:22;9.40;99.90
52869;DHT22;39100;53.480;6.158;2023-03-03T13:44:21;9.30;99.90
52869;DHT22;39100;53.480;6.158;2023-03-03T13:46:54;9.20;99.90
52869;DHT22;39100;53.480;6.158;2023-03-03T13:49:32;9.70;99.90
52869;DHT22;39100;53.480;6.158;2023-03-03T13:52:12;9.20;99.90
52869;DHT22;39100;53.480;6.158;2023-03-03T13:54:50;9.20;99.90
52869;DHT22;39100;53.480;6.158;2023-03-03T13:57:35;9.20;99.90
52869;DHT22;39100;53.480;6.158;2023-03-03T14:00:06;9.20;99.90
52869;DHT22;39100;53.480;6.158;2023-03-03T14:02:50;9.20;99.90
52869;DHT22;39100;53.480;6.158;2023-03-03T14:05:29;9.10;99.90
52869;DHT22;39100;53.480;6.158;2023-03-03T14:08:00;9.00;99.90
52869;DHT22;39100;53.480;6.158;2023-03-03T14:10:31;9.10;99.90
52869;DHT22;39100;53.480;6.158;2023-03-03T14:13:01;9.00;99.90
52869;DHT22;39100;53.480;6.158;2023-03-03T14:15:29;9.00;99.90
52869;DHT22;39100;53.480;6.158;2023-03-03T14:20:33;9.00;99.90
52869;DHT22;39100;53.480;6.158;2023-03-03T14:23:03;9.00;99.90
52869;DHT22;39100;53.480;6.158;2023-03-03T14:25:50;9.00;99.90
52869;DHT22;39100;53.480;6.158;2023-03-03T14:28:17;8.90;99.90
52869;DHT22;39100;53.480;6.158;2023-03-03T14:30:43;9.00;99.90
52869;DHT22;39100;53.480;6.158;2023-03-03T14:35:38;8.90;99.90
52869;DHT22;39100;53.480;6.158;2023-03-03T14:40:36;8.90;99.90
52869;DHT22;39100;53.480;6.158;2023-03-03T14:43:25;8.90;99.90
52869;DHT22;39100;53.480;6.158;2023-03-03T14:45:53;8.80;99.90
52869;DHT22;39100;53.480;6.158;2023-03-03T14:48:20;8.80;99.90
52869;DHT22;39100;53.480;6.158;2023-03-03T14:50:54;8.80;99.90
52869;DHT22;39100;53.480;6.158;2023-03-03T14:55:47;8.70;99.90
52869;DHT22;39100;53.480;6.158;2023-03-03T15:01:13;8.60;99.90
52869;DHT22;39100;53.480;6.158;2023-03-03T15:03:43;8.60;99.90
52869;DHT22;39100;53.480;6.158;2023-03-03T15:06:10;8.60;99.90
52869;DHT22;39100;53.480;6.158;2023-03-03T15:08:38;8.50;99.90
52869;DHT22;39100;53.480;6.158;2023-03-03T15:11:11;9.30;99.90
52869;DHT22;39100;53.480;6.158;2023-03-03T15:13:37;8.50;99.90
52869;DHT22;39100;53.480;6.158;2023-03-03T15:16:16;8.50;99.90
52869;DHT22;39100;53.480;6.158;2023-03-03T15:18:49;8.40;99.90
52869;DHT22;39100;53.480;6.158;2023-03-03T15:21:20;8.40;99.90
52869;DHT22;39100;53.480;6.158;2023-03-03T15:23:55;8.40;99.90
52869;DHT22;39100;53.480;6.158;2023-03-03T15:26:28;8.30;99.90
52869;DHT22;39100;53.480;6.158;2023-03-03T15:28:57;8.30;99.90
52869;DHT22;39100;53.480;6.158;2023-03-03T15:34:01;8.20;99.90
52869;DHT22;39100;53.480;6.158;2023-03-03T15:36:31;8.10;99.90
52869;DHT22;39100;53.480;6.158;2023-03-03T15:43:56;8.00;99.90
52869;DHT22;39100;53.480;6.158;2023-03-03T15:46:31;8.00;99.90
52869;DHT22;39100;53.480;6.158;2023-03-03T15:54:41;7.90;99.90
52869;DHT22;39100;53.480;6.158;2023-03-03T15:59:58;7.90;99.90
52869;DHT22;39100;53.480;6.158;2023-03-03T16:05:27;7.80;99.90
52869;DHT22;39100;53.480;6.158;2023-03-03T16:07:57;7.80;99.90
52869;DHT22;39100;53.480;6.158;2023-03-03T16:18:34;7.60;99.90
52869;DHT22;39100;53.480;6.158;2023-03-03T16:23:45;7.60;99.90
52869;DHT22;39100;53.480;6.158;2023-03-03T16:26:17;9.00;99.90
52869;DHT22;39100;53.480;6.158;2023-03-03T16:31:24;7.60;99.90
52869;DHT22;39100;53.480;6.158;2023-03-03T16:34:00;7.50;99.90
52869;DHT22;39100;53.480;6.158;2023-03-03T16:39:20;7.40;99.90
52869;DHT22;39100;53.480;6.158;2023-03-03T16:44:30;7.40;99.90
52869;DHT22;39100;53.480;6.158;2023-03-03T16:50:07;7.40;99.90
52869;DHT22;39100;53.480;6.158;2023-03-03T16:55:26;7.40;99.90
52869;DHT22;39100;53.480;6.158;2023-03-03T16:58:07;7.30;99.90
52869;DHT22;39100;53.480;6.158;2023-03-03T17:00:44;7.30;99.90
52869;DHT22;39100;53.480;6.158;2023-03-03T17:03:22;7.30;99.90
52869;DHT22;39100;53.480;6.158;2023-03-03T17:05:53;7.30;99.90
52869;DHT22;39100;53.480;6.158;2023-03-03T17:08:25;7.30;99.90
52869;DHT22;39100;53.480;6.158;2023-03-03T17:11:01;7.30;99.90
52869;DHT22;39100;53.480;6.158;2023-03-03T17:16:13;7.30;99.90
52869;DHT22;39100;53.480;6.158;2023-03-03T17:18:47;7.30;99.90
52869;DHT22;39100;53.480;6.158;2023-03-03T17:24:03;7.20;99.90
52869;DHT22;39100;53.480;6.158;2023-03-03T17:26:45;7.20;99.90
52869;DHT22;39100;53.480;6.158;2023-03-03T17:31:52;7.10;99.90
52869;DHT22;39100;53.480;6.158;2023-03-03T17:39:53;7.10;99.90
52869;DHT22;39100;53.480;6.158;2023-03-03T17:45:03;7.10;99.90
52869;DHT22;39100;53.480;6.158;2023-03-03T17:47:35;7.10;99.90
52869;DHT22;39100;53.480;6.158;2023-03-03T17:55:34;7.10;99.90
52869;DHT22;39100;53.480;6.158;2023-03-03T17:58:22;7.10;99.90
52869;DHT22;39100;53.480;6.158;2023-03-03T18:03:27;7.10;99.90
52869;DHT22;39100;53.480;6.158;2023-03-03T18:11:22;7.00;99.90
52869;DHT22;39100;53.480;6.158;2023-03-03T18:13:55;7.00;99.90
52869;DHT22;39100;53.480;6.158;2023-03-03T18:19:06;6.90;99.90
52869;DHT22;39100;53.480;6.158;2023-03-03T18:21:37;6.90;99.90
52869;DHT22;39100;53.480;6.158;2023-03-03T18:26:41;6.90;99.90
52869;DHT22;39100;53.480;6.158;2023-03-03T18:32:03;6.80;99.90
52869;DHT22;39100;53.480;6.158;2023-03-03T18:42:09;6.90;99.90
52869;DHT22;39100;53.480;6.158;2023-03-03T18:44:35;6.80;99.90
52869;DHT22;39100;53.480;6.158;2023-03-03T18:47:01;6.80;99.90
52869;DHT22;39100;53.480;6.158;2023-03-03T18:49:46;6.90;99.90
52869;DHT22;39100;53.480;6.158;2023-03-03T18:52:13;6.80;99.90
52869;DHT22;39100;53.480;6.158;2023-03-03T18:54:41;6.80;99.90
52869;DHT22;39100;53.480;6.158;2023-03-03T18:57:16;6.80;99.90
52869;DHT22;39100;53.480;6.158;2023-03-03T18:59:52;6.80;99.90
52869;DHT22;39100;53.480;6.158;2023-03-03T19:02:36;6.90;99.90
52869;DHT22;39100;53.480;6.158;2023-03-03T19:18:01;6.90;99.90
52869;DHT22;39100;53.480;6.158;2023-03-03T19:20:37;6.90;99.90
52869;DHT22;39100;53.480;6.158;2023-03-03T19:25:38;6.90;99.90
52869;DHT22;39100;53.480;6.158;2023-03-03T19:30:44;6.90;99.90
52869;DHT22;39100;53.480;6.158;2023-03-03T19:38:57;6.90;99.90
52869;DHT22;39100;53.480;6.158;2023-03-03T19:43:53;7.00;99.90
52869;DHT22;39100;53.480;6.158;2023-03-03T19:51:49;6.90;99.90
52869;DHT22;39100;53.480;6.158;2023-03-03T19:55:00;6.90;99.90
52869;DHT22;39100;53.480;6.158;2023-03-03T19:57:10;6.90;99.90
52869;DHT22;39100;53.480;6.158;2023-03-03T19:59:48;6.90;99.90
52869;DHT22;39100;53.480;6.158;2023-03-03T20:07:48;6.90;99.90
52869;DHT22;39100;53.480;6.158;2023-03-03T20:10:32;6.90;99.90
52869;DHT22;39100;53.480;6.158;2023-03-03T20:13:08;6.90;99.90
52869;DHT22;39100;53.480;6.158;2023-03-03T20:15:41;6.90;99.90
52869;DHT22;39100;53.480;6.158;2023-03-03T20:20:52;6.90;99.90
52869;DHT22;39100;53.480;6.158;2023-03-03T20:23:21;6.90;99.90
52869;DHT22;39100;53.480;6.158;2023-03-03T20:25:49;6.90;99.90
52869;DHT22;39100;53.480;6.158;2023-03-03T20:33:51;6.90;99.90
52869;DHT22;39100;53.480;6.158;2023-03-03T20:43:57;6.90;99.90
52869;DHT22;39100;53.480;6.158;2023-03-03T20:46:31;6.80;99.90
52869;DHT22;39100;53.480;6.158;2023-03-03T21:04:25;6.80;99.90
52869;DHT22;39100;53.480;6.158;2023-03-03T21:06:52;6.80;99.90
52869;DHT22;39100;53.480;6.158;2023-03-03T21:09:28;6.80;99.90
52869;DHT22;39100;53.480;6.158;2023-03-03T21:11:54;6.80;99.90
52869;DHT22;39100;53.480;6.158;2023-03-03T21:14:21;6.80;99.90
52869;DHT22;39100;53.480;6.158;2023-03-03T21:16:47;6.80;99.90
52869;DHT22;39100;53.480;6.158;2023-03-03T21:19:24;6.90;99.90
52869;DHT22;39100;53.480;6.158;2023-03-03T21:21:50;6.90;99.90